Time;durP1;ratioP1;P1;durP2;ratioP2;P2;SDS_P1;SDS_P2;PMS_P1;PMS_P2;Temp;Humidity;BMP_temperature;BMP_pressure;BME280_temperature;BME280_humidity;BME280_pressure;Samples;Min_cycle;Max_cycle;Signal;HPM_P1;HPM_P2
2021/03/28 00:02:12;;;;;;;9.07;3.33;;;4.30;99.90;;;;;;5081362;28;19931;-67
2021/03/28 00:04:47;;;;;;;9.10;2.93;;;4.20;99.90;;;;;;5084339;28;20043;-67
2021/03/28 00:07:15;;;;;;;8.77;2.77;;;4.20;99.90;;;;;;5083860;28;20043;-67
2021/03/28 00:09:48;;;;;;;11.60;3.13;;;4.20;99.90;;;;;;5080805;28;20519;-67
2021/03/28 00:12:27;;;;;;;12.30;3.80;;;4.30;99.90;;;;;;5083535;28;20083;-67
2021/03/28 00:14:58;;;;;;;9.57;3.10;;;4.30;99.90;;;;;;5083399;28;20139;-67
2021/03/28 00:17:32;;;;;;;6.87;2.70;;;4.20;99.90;;;;;;5085032;28;20055;-67
2021/03/28 00:20:09;;;;;;;8.30;3.10;;;4.20;99.90;;;;;;5085347;28;20427;-67
2021/03/28 00:22:39;;;;;;;11.48;2.65;;;4.20;99.90;;;;;;5085169;28;20174;-67
2021/03/28 00:25:15;;;;;;;6.50;2.80;;;4.10;99.90;;;;;;5082684;28;20112;-67
2021/03/28 00:27:47;;;;;;;11.43;3.40;;;4.10;99.90;;;;;;5085688;28;20630;-67
2021/03/28 00:30:26;;;;;;;15.27;3.87;;;4.00;99.90;;;;;;5081714;28;20063;-67
2021/03/28 00:32:57;;;;;;;9.53;2.60;;;4.00;99.90;;;;;;5082188;28;20052;-67
2021/03/28 00:35:29;;;;;;;12.70;3.07;;;4.00;99.90;;;;;;5077700;28;20048;-67
2021/03/28 00:38:03;;;;;;;10.73;3.17;;;4.00;99.90;;;;;;5079300;28;20048;-67
2021/03/28 00:40:32;;;;;;;11.63;3.80;;;4.10;99.90;;;;;;5083014;28;20044;-67
2021/03/28 00:43:19;;;;;;;15.77;3.10;;;4.10;99.90;;;;;;5082834;28;20048;-67
2021/03/28 00:45:53;;;;;;;11.13;3.33;;;4.20;99.90;;;;;;5075438;28;21333;-67
2021/03/28 00:48:22;;;;;;;13.90;3.23;;;4.20;99.90;;;;;;5081117;28;20304;-67
2021/03/28 00:50:57;;;;;;;7.53;2.90;;;4.10;99.90;;;;;;5082396;28;20047;-67
2021/03/28 00:53:35;;;;;;;11.53;3.17;;;4.00;99.90;;;;;;5081246;28;20134;-67
2021/03/28 00:56:05;;;;;;;12.27;3.70;;;4.00;99.90;;;;;;5077101;28;20447;-67
2021/03/28 00:58:45;;;;;;;11.27;3.27;;;4.00;99.90;;;;;;5081192;28;20119;-67
2021/03/28 01:01:28;;;;;;;10.93;3.33;;;4.00;99.90;;;;;;5081768;28;20269;-67
2021/03/28 01:04:25;;;;;;;10.47;3.47;;;4.00;99.90;;;;;;5081551;28;20056;-67
2021/03/28 01:06:54;;;;;;;15.50;4.13;;;4.00;99.90;;;;;;5078794;28;20044;-67
2021/03/28 01:09:36;;;;;;;10.93;3.93;;;4.00;99.90;;;;;;5079748;28;20190;-67
2021/03/28 01:12:40;;;;;;;10.10;3.90;;;4.00;99.90;;;;;;5079923;28;20397;-67
2021/03/28 01:15:33;;;;;;;13.37;3.97;;;4.10;99.90;;;;;;5082158;28;20048;-67
2021/03/28 01:18:06;;;;;;;9.07;3.70;;;4.10;99.90;;;;;;5080492;28;20055;-67
2021/03/28 01:20:50;;;;;;;15.27;4.67;;;4.00;99.90;;;;;;5082045;28;20088;-67
2021/03/28 01:23:32;;;;;;;12.87;4.13;;;4.00;99.90;;;;;;5079866;28;20121;-67
2021/03/28 01:26:31;;;;;;;9.67;4.33;;;4.00;99.90;;;;;;5079703;28;20619;-67
2021/03/28 01:29:01;;;;;;;8.77;3.87;;;4.00;99.90;;;;;;5078063;28;20094;-67
2021/03/28 01:31:34;;;;;;;13.77;4.20;;;3.90;99.90;;;;;;5082068;28;20043;-67
2021/03/28 01:34:13;;;;;;;10.17;3.70;;;3.80;99.90;;;;;;5070123;28;20044;-67
2021/03/28 01:36:45;;;;;;;15.17;4.37;;;3.80;99.90;;;;;;5067875;28;20055;-67
2021/03/28 01:39:16;;;;;;;14.40;4.40;;;3.90;99.90;;;;;;5069393;28;20090;-67
2021/03/28 01:41:50;;;;;;;12.43;3.83;;;3.90;99.90;;;;;;5073784;28;21220;-67
2021/03/28 01:44:24;;;;;;;10.20;4.33;;;4.00;99.90;;;;;;5068645;28;20124;-67
2021/03/28 01:47:06;;;;;;;9.20;3.70;;;4.10;99.90;;;;;;5072527;28;20539;-67
2021/03/28 01:49:45;;;;;;;11.07;4.10;;;4.00;99.90;;;;;;5072910;28;20172;-67
2021/03/28 01:52:20;;;;;;;17.53;3.97;;;4.10;99.90;;;;;;5072930;28;20044;-67
2021/03/28 01:55:01;;;;;;;11.17;3.93;;;4.10;99.90;;;;;;5072499;28;20040;-67
2021/03/28 01:57:39;;;;;;;11.17;3.93;;;4.10;99.90;;;;;;5072758;28;20047;-67
2021/03/28 02:00:27;;;;;;;16.40;3.63;;;4.30;99.90;;;;;;5071762;28;20071;-67
2021/03/28 02:02:58;;;;;;;9.97;4.07;;;4.40;99.90;;;;;;5071486;28;20503;-67
2021/03/28 02:05:44;;;;;;;16.50;3.63;;;4.40;99.90;;;;;;5074583;28;20044;-67
2021/03/28 02:08:18;;;;;;;14.27;4.40;;;4.40;99.90;;;;;;5072368;28;20520;-66
2021/03/28 02:10:53;;;;;;;15.87;4.17;;;4.40;99.90;;;;;;5074186;28;20056;-66
2021/03/28 02:13:25;;;;;;;12.00;3.43;;;4.50;99.90;;;;;;5069861;28;20059;-66
2021/03/28 02:16:10;;;;;;;9.37;3.03;;;4.60;99.90;;;;;;5073173;28;20054;-66
2021/03/28 02:18:57;;;;;;;11.50;3.27;;;4.60;99.90;;;;;;5075469;28;20124;-66
2021/03/28 02:21:42;;;;;;;8.65;3.28;;;4.60;99.90;;;;;;5072924;28;20052;-67
2021/03/28 02:24:15;;;;;;;13.63;4.00;;;4.60;99.90;;;;;;5075183;28;20067;-67
2021/03/28 02:26:46;;;;;;;14.03;4.00;;;4.60;99.90;;;;;;5076439;28;20047;-67
2021/03/28 02:29:21;;;;;;;15.70;4.37;;;4.60;99.90;;;;;;5066796;28;20101;-66
2021/03/28 02:32:02;;;;;;;13.53;3.73;;;4.70;99.90;;;;;;5074477;28;20044;-66
2021/03/28 02:34:36;;;;;;;10.20;3.33;;;4.60;99.90;;;;;;5075582;28;20702;-66
2021/03/28 02:37:11;;;;;;;15.47;4.17;;;4.70;99.90;;;;;;5073639;28;20154;-66
2021/03/28 02:39:45;;;;;;;19.37;5.07;;;4.70;99.90;;;;;;5072950;28;20496;-66
2021/03/28 02:42:20;;;;;;;14.00;4.60;;;4.60;99.90;;;;;;5072801;28;20110;-66
2021/03/28 02:45:17;;;;;;;11.17;4.07;;;4.60;99.90;;;;;;5075824;28;20047;-66
2021/03/28 02:48:14;;;;;;;12.32;3.70;;;4.60;99.90;;;;;;5074351;28;20496;-66
2021/03/28 02:51:18;;;;;;;16.87;4.50;;;4.60;99.90;;;;;;5075850;28;20051;-66
2021/03/28 02:54:11;;;;;;;12.47;3.60;;;4.60;99.90;;;;;;5074286;28;20412;-66
2021/03/28 02:56:53;;;;;;;14.57;4.00;;;4.60;99.90;;;;;;5053187;28;20496;-67
2021/03/28 02:59:29;;;;;;;16.10;4.17;;;4.70;99.90;;;;;;5077356;28;20090;-66
2021/03/28 03:02:24;;;;;;;11.53;3.60;;;4.80;99.90;;;;;;5077344;28;20542;-66
2021/03/28 03:05:02;;;;;;;15.83;3.63;;;4.80;99.90;;;;;;5070998;28;20417;-66
2021/03/28 03:07:58;;;;;;;9.43;3.30;;;4.80;99.90;;;;;;5074087;28;20146;-67
2021/03/28 03:10:51;;;;;;;10.93;3.23;;;4.70;99.90;;;;;;5066204;28;20058;-66
2021/03/28 03:13:33;;;;;;;15.20;3.77;;;4.70;99.90;;;;;;5073072;28;20048;-66
2021/03/28 03:16:03;;;;;;;17.60;4.13;;;4.80;99.90;;;;;;5071623;28;20051;-66
2021/03/28 03:19:04;;;;;;;15.80;4.17;;;4.80;99.90;;;;;;5074450;28;20101;-67
2021/03/28 03:22:16;;;;;;;11.00;3.90;;;4.80;99.90;;;;;;5055087;28;20056;-67
2021/03/28 03:25:39;;;;;;;12.70;3.80;;;4.80;99.90;;;;;;5076077;28;20043;-66
2021/03/28 03:28:39;;;;;;;13.03;4.03;;;4.80;99.90;;;;;;5004969;28;20055;-66
2021/03/28 03:31:32;;;;;;;11.00;3.90;;;4.90;99.90;;;;;;5005834;28;20552;-66
2021/03/28 03:34:45;;;;;;;12.07;3.97;;;4.90;99.90;;;;;;5070885;28;20496;-67
2021/03/28 03:37:38;;;;;;;9.07;3.67;;;4.90;99.90;;;;;;5002559;28;20581;-66
2021/03/28 03:40:21;;;;;;;13.93;3.87;;;4.90;99.90;;;;;;5066672;28;20130;-66
2021/03/28 03:43:21;;;;;;;13.77;4.40;;;4.80;99.90;;;;;;5074145;28;20105;-66
2021/03/28 03:46:04;;;;;;;17.43;3.70;;;4.80;99.90;;;;;;5074665;28;20043;-66
2021/03/28 03:48:42;;;;;;;15.23;3.43;;;4.80;99.90;;;;;;5075239;28;20138;-66
2021/03/28 03:51:31;;;;;;;12.60;3.53;;;4.90;99.90;;;;;;5074138;28;20519;-66
2021/03/28 03:54:03;;;;;;;12.00;3.10;;;5.00;99.90;;;;;;5073768;28;20048;-67
2021/03/28 03:56:46;;;;;;;12.60;4.67;;;5.00;99.90;;;;;;5077585;28;20153;-67
2021/03/28 03:59:22;;;;;;;16.13;4.00;;;5.10;99.90;;;;;;5075360;28;20044;-66
2021/03/28 04:02:01;;;;;;;13.40;4.05;;;5.00;99.90;;;;;;5075909;28;20111;-66
2021/03/28 04:04:43;;;;;;;12.07;4.27;;;5.00;99.90;;;;;;5074212;28;20131;-67
2021/03/28 04:07:38;;;;;;;10.20;3.63;;;5.00;99.90;;;;;;5073426;28;20135;-66
2021/03/28 04:10:34;;;;;;;12.60;4.03;;;5.00;99.90;;;;;;5073811;28;20058;-66
2021/03/28 04:13:29;;;;;;;8.80;3.60;;;5.00;99.90;;;;;;5070380;28;20500;-66
2021/03/28 04:16:05;;;;;;;13.53;3.73;;;5.00;99.90;;;;;;5076711;28;20052;-66
2021/03/28 04:18:44;;;;;;;;;;;5.10;99.90;;;;;;5075579;28;20047;-67
2021/03/28 04:21:23;;;;;;;10.33;3.60;;;5.10;99.90;;;;;;5075231;28;19973;-66
2021/03/28 04:24:03;;;;;;;12.43;3.80;;;5.10;99.90;;;;;;5073580;28;20504;-66
2021/03/28 04:26:53;;;;;;;11.30;3.47;;;5.10;99.90;;;;;;5076582;28;20055;-66
2021/03/28 04:29:20;;;;;;;12.43;3.37;;;5.20;99.90;;;;;;5073874;28;20056;-66
2021/03/28 04:32:17;;;;;;;12.27;3.53;;;5.20;99.90;;;;;;5076482;28;20044;-66
2021/03/28 04:35:05;;;;;;;10.33;3.60;;;5.10;99.90;;;;;;5077241;28;20062;-67
2021/03/28 04:37:42;;;;;;;8.67;3.50;;;5.20;99.90;;;;;;5075661;28;20143;-66
2021/03/28 04:40:31;;;;;;;7.53;3.57;;;5.00;99.90;;;;;;5071925;28;20055;-66
2021/03/28 04:43:28;;;;;;;12.90;3.43;;;5.20;99.90;;;;;;5072042;28;20171;-66
2021/03/28 04:46:41;;;;;;;12.20;4.35;;;5.10;99.90;;;;;;5070909;28;20055;-66
2021/03/28 04:49:35;;;;;;;11.03;4.20;;;5.10;99.90;;;;;;5021719;28;20108;-67
2021/03/28 04:52:45;;;;;;;10.93;3.53;;;5.10;99.90;;;;;;5024989;28;20051;-66
2021/03/28 04:55:34;;;;;;;8.93;3.20;;;5.20;99.90;;;;;;5072561;28;20396;-66
2021/03/28 04:58:20;;;;;;;10.73;3.70;;;5.10;99.90;;;;;;5075010;28;20059;-66
2021/03/28 05:01:12;;;;;;;12.47;4.00;;;5.10;99.90;;;;;;5072956;28;20100;-66
2021/03/28 05:04:12;;;;;;;12.43;3.27;;;5.10;99.90;;;;;;5072659;28;20043;-66
2021/03/28 05:07:05;;;;;;;13.17;4.20;;;5.00;99.90;;;;;;5061951;28;20097;-66
2021/03/28 05:09:56;;;;;;;12.73;3.97;;;5.00;99.90;;;;;;5071890;28;20065;-66
2021/03/28 05:12:44;;;;;;;14.10;3.77;;;5.00;99.90;;;;;;5073468;28;20058;-67
2021/03/28 05:15:50;;;;;;;13.63;4.47;;;5.10;99.90;;;;;;5074096;28;20079;-67
2021/03/28 05:18:58;;;;;;;14.57;4.50;;;5.10;99.90;;;;;;5071581;28;20043;-66
2021/03/28 05:21:51;;;;;;;16.70;4.60;;;5.20;99.90;;;;;;5074587;28;20048;-67
2021/03/28 05:24:45;;;;;;;13.23;3.93;;;5.10;99.90;;;;;;5072614;28;20050;-66
2021/03/28 05:27:49;;;;;;;15.87;4.57;;;5.20;99.90;;;;;;5075076;28;20047;-66
2021/03/28 05:30:41;;;;;;;13.37;4.10;;;5.10;99.90;;;;;;5073308;28;20047;-67
2021/03/28 05:33:50;;;;;;;14.73;3.77;;;5.20;99.90;;;;;;5073579;28;20066;-66
2021/03/28 05:36:50;;;;;;;12.70;3.70;;;5.10;99.90;;;;;;5073213;28;20057;-66
2021/03/28 05:39:42;;;;;;;10.37;3.40;;;5.20;99.90;;;;;;5073734;28;20047;-69
2021/03/28 05:42:58;;;;;;;16.40;4.50;;;5.20;99.90;;;;;;5069685;28;20116;-67
2021/03/28 05:45:59;;;;;;;13.87;4.27;;;5.20;99.90;;;;;;5043909;28;20083;-67
2021/03/28 05:48:58;;;;;;;14.03;4.77;;;5.20;99.90;;;;;;5073050;28;20168;-66
2021/03/28 05:52:15;;;;;;;11.73;4.23;;;5.40;99.90;;;;;;5074475;28;20054;-68
2021/03/28 05:55:13;;;;;;;11.10;3.70;;;5.60;99.90;;;;;;4964066;28;20074;-67
2021/03/28 05:58:28;;;;;;;11.37;3.80;;;5.50;99.90;;;;;;5075493;28;20799;-66
2021/03/28 06:01:39;;;;;;;10.93;3.97;;;5.50;99.90;;;;;;5078042;28;20116;-67
2021/03/28 06:04:53;;;;;;;12.53;4.03;;;5.50;99.90;;;;;;5012073;28;20540;-66
2021/03/28 06:08:21;;;;;;;11.40;4.47;;;5.40;99.90;;;;;;5077780;28;21516;-66
2021/03/28 06:11:19;;;;;;;14.37;6.03;;;5.50;99.90;;;;;;5077962;28;20524;-66
2021/03/28 06:14:19;;;;;;;11.52;4.40;;;5.60;99.90;;;;;;5076632;28;20963;-66
2021/03/28 06:17:16;;;;;;;13.73;3.93;;;5.60;99.90;;;;;;5076834;28;20048;-66
2021/03/28 06:23:27;;;;;;;15.70;4.40;;;5.80;99.90;;;;;;5121780;27;20790;-66
2021/03/28 06:26:30;;;;;;;13.15;3.53;;;5.80;99.90;;;;;;5103146;27;20388;-66
2021/03/28 06:29:27;;;;;;;15.93;4.10;;;5.80;99.90;;;;;;5105305;27;20053;-66
2021/03/28 06:32:30;;;;;;;11.75;4.22;;;5.80;99.90;;;;;;5103227;27;20112;-65
2021/03/28 06:35:45;;;;;;;11.63;4.13;;;6.00;99.90;;;;;;5105335;27;20047;-65
2021/03/28 06:38:43;;;;;;;13.03;4.27;;;6.00;99.90;;;;;;5101890;27;20054;-65
2021/03/28 06:41:45;;;;;;;11.73;3.70;;;6.00;99.90;;;;;;5054093;27;21543;-65
2021/03/28 06:44:54;;;;;;;13.47;4.33;;;6.10;99.90;;;;;;5100121;27;20058;-66
2021/03/28 06:47:58;;;;;;;10.63;4.37;;;6.20;99.90;;;;;;5100844;27;20126;-66
2021/03/28 06:50:52;;;;;;;12.57;4.33;;;6.40;99.90;;;;;;5105425;27;20043;-66
2021/03/28 06:53:55;;;;;;;15.47;4.07;;;6.50;99.90;;;;;;5104776;27;20051;-66
2021/03/28 06:56:57;;;;;;;11.03;4.07;;;6.50;99.90;;;;;;5103979;27;20077;-66
2021/03/28 06:59:56;;;;;;;11.87;3.87;;;6.60;99.90;;;;;;5068539;27;20059;-66
2021/03/28 07:03:04;;;;;;;12.70;3.70;;;6.60;99.90;;;;;;5096621;27;20046;-66
2021/03/28 07:05:41;;;;;;;12.27;3.85;;;6.80;99.90;;;;;;5103842;27;20051;-66
2021/03/28 07:08:45;;;;;;;11.80;3.75;;;6.90;99.90;;;;;;5103089;27;20055;-66
2021/03/28 07:11:24;;;;;;;16.10;3.57;;;6.90;99.90;;;;;;5102298;27;20093;-67
2021/03/28 07:14:23;;;;;;;13.73;3.87;;;6.80;99.90;;;;;;5100925;27;20420;-66
2021/03/28 07:17:33;;;;;;;11.77;3.50;;;6.80;99.90;;;;;;5108602;27;20082;-66
2021/03/28 07:20:24;;;;;;;9.67;3.43;;;6.70;99.90;;;;;;5108460;27;20519;-66
2021/03/28 07:23:15;;;;;;;10.27;4.40;;;6.70;99.90;;;;;;5109185;27;20593;-66
2021/03/28 07:25:50;;;;;;;8.73;4.17;;;6.70;99.90;;;;;;5091846;27;20294;-67
2021/03/28 07:29:06;;;;;;;11.87;3.80;;;6.80;99.90;;;;;;5105446;27;20047;-66
2021/03/28 07:32:01;;;;;;;13.27;3.77;;;6.90;99.90;;;;;;5108248;27;20052;-66
2021/03/28 07:35:04;;;;;;;13.37;3.77;;;7.00;99.90;;;;;;5090275;27;20055;-64
2021/03/28 07:38:20;;;;;;;11.75;3.95;;;7.10;99.90;;;;;;5090049;27;20051;-64
2021/03/28 07:41:12;;;;;;;11.43;3.58;;;7.30;99.90;;;;;;5038378;28;20299;-64
2021/03/28 07:44:27;;;;;;;12.15;3.63;;;7.50;99.90;;;;;;5095651;27;20074;-64
2021/03/28 07:47:31;;;;;;;13.20;3.67;;;7.70;99.90;;;;;;5022227;28;20049;-66
2021/03/28 07:50:43;;;;;;;12.95;4.25;;;7.80;99.90;;;;;;5014969;28;20076;-68
2021/03/28 07:53:54;;;;;;;13.60;3.83;;;7.90;99.90;;;;;;5102143;27;20048;-69
2021/03/28 07:57:00;;;;;;;12.55;3.70;;;7.80;99.90;;;;;;5098533;27;20047;-69
2021/03/28 07:59:40;;;;;;;9.75;3.50;;;7.70;99.90;;;;;;5084064;27;20079;-68
2021/03/28 08:02:52;;;;;;;12.85;3.40;;;7.90;99.90;;;;;;5105472;27;20411;-66
2021/03/28 08:05:44;;;;;;;12.95;3.28;;;7.90;99.90;;;;;;5105527;27;20051;-66
2021/03/28 08:08:27;;;;;;;11.13;3.42;;;7.90;99.90;;;;;;5105110;27;20058;-67
2021/03/28 08:11:21;;;;;;;11.60;3.83;;;8.00;99.90;;;;;;5105035;27;20510;-67
2021/03/28 08:14:11;;;;;;;13.18;4.13;;;7.80;99.90;;;;;;5103489;27;20543;-66
2021/03/28 08:17:01;;;;;;;11.27;3.60;;;8.00;99.90;;;;;;5104654;27;20051;-67
2021/03/28 08:20:09;;;;;;;11.05;3.58;;;8.20;99.90;;;;;;5107400;27;20280;-68
2021/03/28 08:22:56;;;;;;;10.80;3.10;;;8.50;99.90;;;;;;5103626;27;20040;-66
2021/03/28 08:25:39;;;;;;;;;;;8.80;99.90;;;;;;5103388;27;20046;-67
2021/03/28 08:28:52;;;;;;;13.68;3.13;;;9.10;99.90;;;;;;5100546;27;19923;-64
2021/03/28 08:31:27;;;;;;;9.73;3.00;;;9.40;99.90;;;;;;5068004;27;20051;-64
2021/03/28 08:34:48;;;;;;;14.48;4.10;;;9.80;99.90;;;;;;5102173;27;20050;-67
2021/03/28 08:37:34;;;;;;;8.65;3.50;;;9.80;99.90;;;;;;5012614;28;20061;-67
2021/03/28 08:40:29;;;;;;;13.18;4.07;;;10.20;99.90;;;;;;5018980;28;20178;-66
2021/03/28 08:43:38;;;;;;;12.93;3.88;;;10.40;99.90;;;;;;5099162;27;20050;-65
2021/03/28 08:46:29;;;;;;;11.30;3.83;;;11.00;99.90;;;;;;5097141;27;20055;-68
2021/03/28 08:49:06;;;;;;;11.75;3.85;;;10.90;99.90;;;;;;5093551;27;20043;-66
2021/03/28 08:52:01;;;;;;;13.65;3.45;;;11.30;99.90;;;;;;5100294;27;20471;-66
2021/03/28 08:54:50;;;;;;;10.57;3.42;;;12.10;99.90;;;;;;5106729;27;20077;-66
2021/03/28 08:57:31;;;;;;;11.52;4.00;;;12.70;99.90;;;;;;5108416;27;20047;-66
2021/03/28 09:00:33;;;;;;;13.50;3.53;;;12.90;99.90;;;;;;5106627;27;20051;-67
2021/03/28 09:03:23;;;;;;;13.80;3.35;;;13.90;99.90;;;;;;5090490;27;20960;-66
2021/03/28 09:05:52;;;;;;;10.75;3.08;;;14.90;99.90;;;;;;5107695;27;20051;-67
2021/03/28 09:08:28;;;;;;;10.88;3.08;;;16.10;99.90;;;;;;5101781;27;20499;-67
2021/03/28 09:11:24;;;;;;;11.97;3.43;;;17.20;99.90;;;;;;5097725;27;20367;-66
2021/03/28 09:13:58;;;;;;;9.15;3.03;;;17.60;99.90;;;;;;5095963;27;20406;-68
2021/03/28 09:16:39;;;;;;;9.07;3.03;;;17.60;99.90;;;;;;5097364;27;20507;-68
2021/03/28 09:19:15;;;;;;;12.07;3.50;;;18.40;99.90;;;;;;5094968;27;20493;-68
2021/03/28 09:21:52;;;;;;;10.60;3.17;;;19.00;99.90;;;;;;5092796;27;20050;-69
2021/03/28 09:24:37;;;;;;;8.10;2.58;;;19.60;97.90;;;;;;5094337;27;20071;-69
2021/03/28 09:27:27;;;;;;;10.88;2.97;;;18.50;97.40;;;;;;5098770;27;20460;-68
2021/03/28 09:30:07;;;;;;;9.18;2.90;;;16.80;98.50;;;;;;5101015;27;20083;-68
2021/03/28 09:32:54;;;;;;;11.82;3.65;;;15.10;99.90;;;;;;5109767;27;20035;-68
2021/03/28 09:35:39;;;;;;;;;;;14.80;99.90;;;;;;5110519;27;20494;-67
2021/03/28 09:38:14;;;;;;;10.15;2.85;;;14.60;99.90;;;;;;5109875;27;19964;-68
2021/03/28 09:40:48;;;;;;;9.02;2.65;;;14.40;99.90;;;;;;5109800;27;20047;-67
2021/03/28 09:43:32;;;;;;;12.98;3.53;;;14.70;99.90;;;;;;5109710;27;20047;-68
2021/03/28 09:46:33;;;;;;;9.40;2.47;;;14.40;99.90;;;;;;5107378;27;20488;-68
2021/03/28 09:49:30;;;;;;;7.55;1.85;;;14.30;99.90;;;;;;5112952;27;20051;-67
2021/03/28 09:52:27;;;;;;;8.40;2.03;;;13.20;99.90;;;;;;5108200;27;20066;-69
2021/03/28 09:55:32;;;;;;;7.47;1.80;;;13.60;99.90;;;;;;5108367;27;20059;-67
2021/03/28 09:58:43;;;;;;;7.15;2.15;;;12.90;99.90;;;;;;5107486;27;20058;-68
2021/03/28 10:01:43;;;;;;;9.48;1.70;;;12.50;99.90;;;;;;5111884;27;20048;-69
2021/03/28 10:04:21;;;;;;;7.47;1.67;;;13.00;99.90;;;;;;5105578;27;20468;-67
2021/03/28 10:06:56;;;;;;;8.00;1.60;;;13.10;99.90;;;;;;5107746;27;20673;-67
2021/03/28 10:09:36;;;;;;;9.98;1.95;;;13.90;99.90;;;;;;5107943;27;20357;-68
2021/03/28 10:12:14;;;;;;;10.73;2.40;;;15.60;99.90;;;;;;5108662;27;20056;-67
2021/03/28 10:14:52;;;;;;;6.45;1.92;;;16.40;98.90;;;;;;5107074;27;20055;-68
2021/03/28 10:17:39;;;;;;;7.90;1.73;;;15.60;97.80;;;;;;5110131;27;20949;-68
2021/03/28 10:20:28;;;;;;;4.45;1.45;;;15.60;97.00;;;;;;5112148;28;20075;-68
2021/03/28 10:23:07;;;;;;;6.65;1.50;;;15.30;97.80;;;;;;5108252;28;20055;-68
2021/03/28 10:25:46;;;;;;;6.57;1.48;;;14.00;97.80;;;;;;5109040;28;20047;-68
2021/03/28 10:28:43;;;;;;;6.00;1.60;;;13.70;98.80;;;;;;5107731;28;20048;-68
2021/03/28 10:31:38;;;;;;;7.80;1.55;;;13.30;99.70;;;;;;5106593;28;20051;-68
2021/03/28 10:34:32;;;;;;;9.90;1.60;;;14.20;99.40;;;;;;5105717;28;20047;-68
2021/03/28 10:37:17;;;;;;;5.70;1.58;;;14.30;98.60;;;;;;5105897;28;20062;-67
2021/03/28 10:40:00;;;;;;;6.00;1.65;;;13.50;99.40;;;;;;5109406;28;20051;-68
2021/03/28 10:42:39;;;;;;;6.20;2.30;;;13.70;99.60;;;;;;5108805;28;20138;-68
2021/03/28 10:45:31;;;;;;;6.00;1.33;;;14.00;98.10;;;;;;5109351;28;20051;-69
2021/03/28 10:48:54;;;;;;;2.95;1.10;;;14.50;96.40;;;;;;5112845;28;20046;-67
2021/03/28 10:51:54;;;;;;;3.80;1.42;;;14.00;96.10;;;;;;5110817;28;20047;-69
2021/03/28 10:54:56;;;;;;;6.93;1.25;;;13.70;97.80;;;;;;5106475;28;20051;-67
2021/03/28 10:57:56;;;;;;;5.78;1.45;;;12.90;96.30;;;;;;5081274;28;20937;-68
2021/03/28 11:01:04;;;;;;;7.53;1.73;;;13.20;97.70;;;;;;5105377;28;20050;-67
2021/03/28 11:03:55;;;;;;;6.30;2.05;;;14.00;96.30;;;;;;5111330;28;20069;-68
2021/03/28 11:07:04;;;;;;;8.20;1.58;;;14.30;95.70;;;;;;5112154;28;20052;-68
2021/03/28 11:09:36;;;;;;;;;;;14.00;95.70;;;;;;5116871;27;20045;-68
2021/03/28 11:12:33;;;;;;;5.88;1.75;;;15.10;97.20;;;;;;5113817;27;19927;-67
2021/03/28 11:15:28;;;;;;;8.82;2.03;;;16.20;93.30;;;;;;5085835;27;20051;-68
2021/03/28 11:18:22;;;;;;;6.80;1.83;;;16.90;91.30;;;;;;5115346;27;20073;-68
2021/03/28 11:20:57;;;;;;;4.38;1.33;;;16.00;91.80;;;;;;5112114;27;20044;-68
2021/03/28 11:23:40;;;;;;;5.95;1.65;;;15.70;90.60;;;;;;5114543;27;20043;-68
2021/03/28 11:26:42;;;;;;;6.68;1.80;;;17.60;90.10;;;;;;5113172;27;20134;-69
2021/03/28 11:29:48;;;;;;;3.67;1.33;;;17.60;84.70;;;;;;5112284;27;20064;-68
2021/03/28 11:32:25;;;;;;;4.22;1.60;;;17.40;83.40;;;;;;5111098;27;20049;-68
2021/03/28 11:35:04;;;;;;;4.82;1.52;;;17.60;82.10;;;;;;5111915;27;20506;-68
2021/03/28 11:37:41;;;;;;;8.77;1.52;;;16.40;82.40;;;;;;5112202;27;20069;-68
2021/03/28 11:40:29;;;;;;;5.32;1.60;;;14.80;85.40;;;;;;5115446;27;20123;-68
2021/03/28 11:43:28;;;;;;;4.32;1.25;;;16.00;90.30;;;;;;5112274;27;20051;-69
2021/03/28 11:46:23;;;;;;;8.88;1.83;;;15.70;88.20;;;;;;5113623;27;20155;-68
2021/03/28 11:49:07;;;;;;;7.15;2.03;;;15.80;86.30;;;;;;5112594;27;20055;-67
2021/03/28 11:52:06;;;;;;;4.60;1.58;;;15.70;89.80;;;;;;5112764;27;20043;-67
2021/03/28 11:54:33;;;;;;;6.82;1.77;;;15.60;86.20;;;;;;5111139;27;20121;-68
2021/03/28 11:57:16;;;;;;;5.22;1.27;;;16.40;90.40;;;;;;5112028;27;20059;-68
2021/03/28 11:59:47;;;;;;;6.43;1.92;;;16.60;86.50;;;;;;5113653;27;20047;-68
2021/03/28 12:02:24;;;;;;;5.57;1.55;;;17.00;83.40;;;;;;5111339;27;20054;-68
2021/03/28 12:05:12;;;;;;;7.57;1.75;;;18.20;81.30;;;;;;5110158;27;20476;-68
2021/03/28 12:07:40;;;;;;;;;;;18.60;78.70;;;;;;5111572;27;20063;-68
2021/03/28 12:10:29;;;;;;;5.22;1.52;;;16.20;77.30;;;;;;5112150;27;19934;-68
2021/03/28 12:13:20;;;;;;;6.90;1.88;;;15.20;80.70;;;;;;5116453;27;20054;-68
2021/03/28 12:16:00;;;;;;;7.00;1.85;;;15.70;82.00;;;;;;5109939;27;20614;-66
2021/03/28 12:18:44;;;;;;;5.55;1.42;;;16.90;80.70;;;;;;5113515;27;20047;-69
2021/03/28 12:21:41;;;;;;;5.53;1.85;;;16.50;78.80;;;;;;5107304;27;20083;-67
2021/03/28 12:24:11;;;;;;;7.75;1.95;;;15.50;80.00;;;;;;5111846;27;20396;-68
2021/03/28 12:27:02;;;;;;;6.70;2.20;;;15.20;82.30;;;;;;5111311;27;20055;-67
2021/03/28 12:29:39;;;;;;;7.95;3.05;;;15.60;80.90;;;;;;5109573;27;20445;-68
2021/03/28 12:32:41;;;;;;;7.30;2.95;;;16.70;80.30;;;;;;5112732;27;20054;-68
2021/03/28 12:35:14;;;;;;;5.45;1.65;;;18.10;79.50;;;;;;5104956;27;20295;-67
2021/03/28 12:37:46;;;;;;;6.10;2.22;;;19.00;76.50;;;;;;5111566;27;20055;-68
2021/03/28 12:40:27;;;;;;;5.70;2.03;;;19.60;73.20;;;;;;5107230;27;20483;-68
2021/03/28 12:42:56;;;;;;;7.95;1.75;;;18.50;70.20;;;;;;5105434;27;20055;-67
2021/03/28 12:45:42;;;;;;;7.35;2.40;;;19.10;72.00;;;;;;5105000;27;20051;-67
2021/03/28 12:48:35;;;;;;;8.38;1.88;;;18.10;71.10;;;;;;5104885;27;20052;-67
2021/03/28 12:51:03;;;;;;;8.73;2.42;;;18.00;70.50;;;;;;5102975;27;20063;-67
2021/03/28 12:53:34;;;;;;;7.85;2.03;;;18.20;70.60;;;;;;5100934;27;20081;-67
2021/03/28 12:56:02;;;;;;;6.63;1.40;;;17.70;71.10;;;;;;5109801;27;20050;-69
2021/03/28 12:58:42;;;;;;;5.82;2.15;;;17.60;70.20;;;;;;5112064;27;20612;-69
2021/03/28 13:01:26;;;;;;;5.57;1.63;;;17.80;70.70;;;;;;5111841;27;20060;-67
2021/03/28 13:03:54;;;;;;;6.57;2.00;;;17.60;70.00;;;;;;5107888;27;20059;-68
2021/03/28 13:06:32;;;;;;;5.38;1.77;;;17.70;69.10;;;;;;5109982;27;21217;-67
2021/03/28 13:09:02;;;;;;;6.75;2.00;;;17.20;68.20;;;;;;5112468;27;20084;-67
2021/03/28 13:11:40;;;;;;;8.68;1.67;;;17.90;68.80;;;;;;5105746;27;20039;-67
2021/03/28 13:14:11;;;;;;;6.97;2.05;;;19.00;66.10;;;;;;5107239;27;20043;-68
2021/03/28 13:16:55;;;;;;;6.57;1.65;;;19.10;65.60;;;;;;5108024;27;20543;-67
2021/03/28 13:19:24;;;;;;;8.20;2.00;;;18.80;64.50;;;;;;5109257;27;20523;-68
2021/03/28 13:21:58;;;;;;;5.53;1.92;;;18.20;64.10;;;;;;5105815;27;20514;-67
2021/03/28 13:24:25;;;;;;;6.38;1.85;;;16.60;66.60;;;;;;5112276;27;20049;-68
2021/03/28 13:27:02;;;;;;;9.13;2.42;;;15.80;67.40;;;;;;5110994;27;20055;-68
2021/03/28 13:29:37;;;;;;;8.95;2.80;;;16.60;67.40;;;;;;5110057;27;20105;-67
2021/03/28 13:32:16;;;;;;;6.03;1.90;;;17.50;66.20;;;;;;5111849;27;20051;-68
2021/03/28 13:34:54;;;;;;;6.57;1.83;;;18.20;65.80;;;;;;5113889;27;20052;-67
2021/03/28 13:37:49;;;;;;;8.77;1.60;;;17.20;64.10;;;;;;5111963;27;20051;-67
2021/03/28 13:40:25;;;;;;;6.00;1.98;;;16.80;64.30;;;;;;5110511;27;20094;-68
2021/03/28 13:42:55;;;;;;;5.50;1.65;;;16.90;65.90;;;;;;5109836;27;20082;-68
2021/03/28 13:45:29;;;;;;;4.60;1.60;;;17.90;65.70;;;;;;5109728;27;20043;-68
2021/03/28 13:47:58;;;;;;;8.18;2.03;;;18.60;64.80;;;;;;5106825;27;20158;-67
2021/03/28 13:50:45;;;;;;;7.47;2.20;;;18.00;63.10;;;;;;5108981;27;20043;-67
2021/03/28 13:53:37;;;;;;;5.05;1.83;;;18.60;63.40;;;;;;5106982;27;20086;-67
2021/03/28 13:56:23;;;;;;;5.97;1.90;;;17.10;62.30;;;;;;5107935;27;20048;-70
2021/03/28 13:59:06;;;;;;;7.47;2.03;;;17.00;64.40;;;;;;5107453;27;20059;-68
2021/03/28 14:01:44;;;;;;;5.95;1.83;;;17.70;66.50;;;;;;5108303;27;20131;-68
2021/03/28 14:04:18;;;;;;;8.52;1.63;;;17.40;64.70;;;;;;5097129;27;20091;-67
2021/03/28 14:06:47;;;;;;;7.63;1.92;;;17.10;65.60;;;;;;5096057;27;20059;-67
2021/03/28 14:09:28;;;;;;;7.35;2.35;;;17.50;65.40;;;;;;5092400;27;20813;-67
2021/03/28 14:11:58;;;;;;;9.05;1.77;;;17.20;63.60;;;;;;5089292;27;20055;-67
2021/03/28 14:14:27;;;;;;;4.88;1.70;;;17.00;63.50;;;;;;5083196;27;20096;-67
2021/03/28 14:16:57;;;;;;;5.90;1.55;;;16.70;64.00;;;;;;5095562;27;20055;-67
2021/03/28 14:19:26;;;;;;;11.18;2.30;;;16.70;64.30;;;;;;5092669;27;20051;-67
2021/03/28 14:21:53;;;;;;;4.32;1.50;;;16.30;63.80;;;;;;5090388;28;20075;-67
2021/03/28 14:24:28;;;;;;;5.70;1.75;;;16.40;64.70;;;;;;5095231;28;20055;-67
2021/03/28 14:27:10;;;;;;;6.93;1.95;;;16.50;65.30;;;;;;5091645;28;20401;-68
2021/03/28 14:29:39;;;;;;;5.90;1.95;;;16.30;64.00;;;;;;5092065;28;20391;-68
2021/03/28 14:32:27;;;;;;;6.75;1.92;;;16.70;65.00;;;;;;5089366;28;20095;-67
2021/03/28 14:35:19;;;;;;;7.70;2.05;;;16.70;63.70;;;;;;5098779;28;20480;-67